sensor_id;sensor_type;location;lat;lon;timestamp;temperature;humidity
66710;DHT22;53624;0.000;0.000;2023-04-15T00:00:41;15.60;95.80
66710;DHT22;53624;0.000;0.000;2023-04-15T00:03:09;15.60;95.80
66710;DHT22;53624;0.000;0.000;2023-04-15T00:05:37;15.60;95.90
66710;DHT22;53624;0.000;0.000;2023-04-15T00:08:04;15.60;95.90
66710;DHT22;53624;0.000;0.000;2023-04-15T00:10:32;15.60;95.90
66710;DHT22;53624;0.000;0.000;2023-04-15T00:13:00;15.60;96.00
66710;DHT22;53624;0.000;0.000;2023-04-15T00:15:30;15.50;95.90
66710;DHT22;53624;0.000;0.000;2023-04-15T00:17:58;15.50;96.00
66710;DHT22;53624;0.000;0.000;2023-04-15T00:20:25;15.50;96.00
66710;DHT22;53624;0.000;0.000;2023-04-15T00:22:53;15.50;96.00
66710;DHT22;53624;0.000;0.000;2023-04-15T00:25:20;15.50;95.90
66710;DHT22;53624;0.000;0.000;2023-04-15T00:27:48;15.50;95.90
66710;DHT22;53624;0.000;0.000;2023-04-15T00:30:15;15.50;95.90
66710;DHT22;53624;0.000;0.000;2023-04-15T00:32:45;15.50;96.00
66710;DHT22;53624;0.000;0.000;2023-04-15T00:35:13;15.40;96.30
66710;DHT22;53624;0.000;0.000;2023-04-15T00:37:41;15.40;96.10
66710;DHT22;53624;0.000;0.000;2023-04-15T00:40:10;15.50;96.00
66710;DHT22;53624;0.000;0.000;2023-04-15T00:42:38;15.40;96.10
66710;DHT22;53624;0.000;0.000;2023-04-15T00:45:06;15.40;96.10
66710;DHT22;53624;0.000;0.000;2023-04-15T00:47:34;15.40;96.20
66710;DHT22;53624;0.000;0.000;2023-04-15T00:50:04;15.40;96.20
66710;DHT22;53624;0.000;0.000;2023-04-15T00:52:31;15.40;96.20
66710;DHT22;53624;0.000;0.000;2023-04-15T00:54:59;15.40;96.30
66710;DHT22;53624;0.000;0.000;2023-04-15T00:57:27;15.40;96.30
66710;DHT22;53624;0.000;0.000;2023-04-15T00:59:55;15.40;96.30
66710;DHT22;53624;0.000;0.000;2023-04-15T01:02:23;15.40;96.40
66710;DHT22;53624;0.000;0.000;2023-04-15T01:04:50;15.40;96.40
66710;DHT22;53624;0.000;0.000;2023-04-15T01:07:19;15.40;96.40
66710;DHT22;53624;0.000;0.000;2023-04-15T01:09:47;15.40;96.40
66710;DHT22;53624;0.000;0.000;2023-04-15T01:12:14;15.40;96.50
66710;DHT22;53624;0.000;0.000;2023-04-15T01:14:43;15.30;96.50
66710;DHT22;53624;0.000;0.000;2023-04-15T01:17:10;15.30;96.50
66710;DHT22;53624;0.000;0.000;2023-04-15T01:19:39;15.30;96.50
66710;DHT22;53624;0.000;0.000;2023-04-15T01:22:07;15.30;96.60
66710;DHT22;53624;0.000;0.000;2023-04-15T01:24:39;15.30;96.50
66710;DHT22;53624;0.000;0.000;2023-04-15T01:27:08;15.30;96.50
66710;DHT22;53624;0.000;0.000;2023-04-15T01:29:36;15.30;96.40
66710;DHT22;53624;0.000;0.000;2023-04-15T01:32:04;15.30;96.50
66710;DHT22;53624;0.000;0.000;2023-04-15T01:34:32;15.30;96.60
66710;DHT22;53624;0.000;0.000;2023-04-15T01:37:00;15.30;96.60
66710;DHT22;53624;0.000;0.000;2023-04-15T01:39:28;15.30;96.70
66710;DHT22;53624;0.000;0.000;2023-04-15T01:41:56;15.30;96.70
66710;DHT22;53624;0.000;0.000;2023-04-15T01:44:25;15.30;96.80
66710;DHT22;53624;0.000;0.000;2023-04-15T01:46:52;15.20;96.70
66710;DHT22;53624;0.000;0.000;2023-04-15T01:49:20;15.30;96.80
66710;DHT22;53624;0.000;0.000;2023-04-15T01:51:47;15.20;96.80
66710;DHT22;53624;0.000;0.000;2023-04-15T01:54:15;15.20;96.80
66710;DHT22;53624;0.000;0.000;2023-04-15T01:56:42;15.20;96.80
66710;DHT22;53624;0.000;0.000;2023-04-15T01:59:10;15.20;96.90
66710;DHT22;53624;0.000;0.000;2023-04-15T02:01:39;15.20;96.90
66710;DHT22;53624;0.000;0.000;2023-04-15T02:04:07;15.20;97.00
66710;DHT22;53624;0.000;0.000;2023-04-15T02:06:41;15.20;97.00
66710;DHT22;53624;0.000;0.000;2023-04-15T02:09:09;15.20;97.00
66710;DHT22;53624;0.000;0.000;2023-04-15T02:11:36;15.20;97.00
66710;DHT22;53624;0.000;0.000;2023-04-15T02:14:04;15.20;97.10
66710;DHT22;53624;0.000;0.000;2023-04-15T02:16:32;15.10;97.10
66710;DHT22;53624;0.000;0.000;2023-04-15T02:19:01;15.10;97.10
66710;DHT22;53624;0.000;0.000;2023-04-15T02:21:29;15.10;97.20
66710;DHT22;53624;0.000;0.000;2023-04-15T02:23:56;15.10;97.20
66710;DHT22;53624;0.000;0.000;2023-04-15T02:26:24;15.10;97.20
66710;DHT22;53624;0.000;0.000;2023-04-15T02:28:53;15.10;97.20
66710;DHT22;53624;0.000;0.000;2023-04-15T02:31:21;15.10;97.30
66710;DHT22;53624;0.000;0.000;2023-04-15T02:33:48;15.10;97.30
66710;DHT22;53624;0.000;0.000;2023-04-15T02:36:17;15.10;97.30
66710;DHT22;53624;0.000;0.000;2023-04-15T02:38:46;15.10;97.30
66710;DHT22;53624;0.000;0.000;2023-04-15T02:41:15;15.10;97.30
66710;DHT22;53624;0.000;0.000;2023-04-15T02:43:44;15.10;97.40
66710;DHT22;53624;0.000;0.000;2023-04-15T02:46:13;15.10;97.40
66710;DHT22;53624;0.000;0.000;2023-04-15T02:48:41;15.10;97.40
66710;DHT22;53624;0.000;0.000;2023-04-15T02:51:15;15.10;97.40
66710;DHT22;53624;0.000;0.000;2023-04-15T02:53:44;15.10;97.40
66710;DHT22;53624;0.000;0.000;2023-04-15T02:56:12;15.00;97.50
66710;DHT22;53624;0.000;0.000;2023-04-15T02:58:40;15.00;97.50
66710;DHT22;53624;0.000;0.000;2023-04-15T03:01:07;15.00;97.50
66710;DHT22;53624;0.000;0.000;2023-04-15T03:03:35;15.00;97.50
66710;DHT22;53624;0.000;0.000;2023-04-15T03:06:03;15.00;97.50
66710;DHT22;53624;0.000;0.000;2023-04-15T03:08:30;15.00;97.50
66710;DHT22;53624;0.000;0.000;2023-04-15T03:10:59;15.00;97.60
66710;DHT22;53624;0.000;0.000;2023-04-15T03:13:27;15.00;97.60
66710;DHT22;53624;0.000;0.000;2023-04-15T03:15:57;15.00;97.60
66710;DHT22;53624;0.000;0.000;2023-04-15T03:18:24;15.00;97.60
66710;DHT22;53624;0.000;0.000;2023-04-15T03:20:52;15.00;97.70
66710;DHT22;53624;0.000;0.000;2023-04-15T03:23:19;15.00;97.70
66710;DHT22;53624;0.000;0.000;2023-04-15T03:25:48;15.00;97.70
66710;DHT22;53624;0.000;0.000;2023-04-15T03:28:17;15.00;97.80
66710;DHT22;53624;0.000;0.000;2023-04-15T03:30:44;15.00;97.80
66710;DHT22;53624;0.000;0.000;2023-04-15T03:33:12;15.00;97.80
66710;DHT22;53624;0.000;0.000;2023-04-15T03:35:39;14.90;97.80
66710;DHT22;53624;0.000;0.000;2023-04-15T03:38:07;14.90;97.80
66710;DHT22;53624;0.000;0.000;2023-04-15T03:40:34;14.90;97.80
66710;DHT22;53624;0.000;0.000;2023-04-15T03:43:02;14.90;97.80
66710;DHT22;53624;0.000;0.000;2023-04-15T03:45:30;14.90;97.90
66710;DHT22;53624;0.000;0.000;2023-04-15T03:47:58;14.90;97.90
66710;DHT22;53624;0.000;0.000;2023-04-15T03:50:25;14.90;97.90
66710;DHT22;53624;0.000;0.000;2023-04-15T03:52:53;14.90;97.90
66710;DHT22;53624;0.000;0.000;2023-04-15T03:55:21;14.90;97.90
66710;DHT22;53624;0.000;0.000;2023-04-15T03:57:48;14.90;97.90
66710;DHT22;53624;0.000;0.000;2023-04-15T04:00:15;14.90;97.90
66710;DHT22;53624;0.000;0.000;2023-04-15T04:02:45;14.90;97.90
66710;DHT22;53624;0.000;0.000;2023-04-15T04:05:12;14.90;98.00
66710;DHT22;53624;0.000;0.000;2023-04-15T04:07:39;14.90;98.00
66710;DHT22;53624;0.000;0.000;2023-04-15T04:10:07;14.90;98.00
66710;DHT22;53624;0.000;0.000;2023-04-15T04:12:35;14.90;98.00
66710;DHT22;53624;0.000;0.000;2023-04-15T04:15:02;14.80;98.10
66710;DHT22;53624;0.000;0.000;2023-04-15T04:17:30;14.90;98.10
66710;DHT22;53624;0.000;0.000;2023-04-15T04:19:59;14.80;98.10
66710;DHT22;53624;0.000;0.000;2023-04-15T04:22:26;14.80;98.10
66710;DHT22;53624;0.000;0.000;2023-04-15T04:24:53;14.80;98.10
66710;DHT22;53624;0.000;0.000;2023-04-15T04:27:21;14.80;98.20
66710;DHT22;53624;0.000;0.000;2023-04-15T04:29:49;14.80;98.20
66710;DHT22;53624;0.000;0.000;2023-04-15T04:32:16;14.80;98.20
66710;DHT22;53624;0.000;0.000;2023-04-15T04:34:44;14.80;98.20
66710;DHT22;53624;0.000;0.000;2023-04-15T04:37:13;14.80;98.20
66710;DHT22;53624;0.000;0.000;2023-04-15T04:39:40;14.80;98.20
66710;DHT22;53624;0.000;0.000;2023-04-15T04:42:08;14.80;98.30
66710;DHT22;53624;0.000;0.000;2023-04-15T04:44:35;14.80;98.30
66710;DHT22;53624;0.000;0.000;2023-04-15T04:47:03;14.80;98.30
66710;DHT22;53624;0.000;0.000;2023-04-15T04:49:31;14.80;98.40
66710;DHT22;53624;0.000;0.000;2023-04-15T04:51:59;14.80;98.40
66710;DHT22;53624;0.000;0.000;2023-04-15T04:54:28;14.80;98.40
66710;DHT22;53624;0.000;0.000;2023-04-15T04:56:57;14.80;98.40
66710;DHT22;53624;0.000;0.000;2023-04-15T04:59:25;14.80;98.50
66710;DHT22;53624;0.000;0.000;2023-04-15T05:01:53;14.70;98.50
66710;DHT22;53624;0.000;0.000;2023-04-15T05:04:20;14.80;98.50
66710;DHT22;53624;0.000;0.000;2023-04-15T05:06:48;14.70;98.50
66710;DHT22;53624;0.000;0.000;2023-04-15T05:09:16;14.70;98.50
66710;DHT22;53624;0.000;0.000;2023-04-15T05:11:45;14.70;98.50
66710;DHT22;53624;0.000;0.000;2023-04-15T05:14:13;14.70;98.60
66710;DHT22;53624;0.000;0.000;2023-04-15T05:16:40;14.70;98.60
66710;DHT22;53624;0.000;0.000;2023-04-15T05:19:08;14.70;98.60
66710;DHT22;53624;0.000;0.000;2023-04-15T05:21:35;14.70;98.60
66710;DHT22;53624;0.000;0.000;2023-04-15T05:24:03;14.70;98.60
66710;DHT22;53624;0.000;0.000;2023-04-15T05:26:31;14.70;98.60
66710;DHT22;53624;0.000;0.000;2023-04-15T05:29:00;14.70;98.70
66710;DHT22;53624;0.000;0.000;2023-04-15T05:31:27;14.70;98.70
66710;DHT22;53624;0.000;0.000;2023-04-15T05:33:55;14.70;98.70
66710;DHT22;53624;0.000;0.000;2023-04-15T05:36:22;14.70;98.60
66710;DHT22;53624;0.000;0.000;2023-04-15T05:38:51;14.70;98.70
66710;DHT22;53624;0.000;0.000;2023-04-15T05:41:19;14.70;98.70
66710;DHT22;53624;0.000;0.000;2023-04-15T05:43:46;14.70;98.70
66710;DHT22;53624;0.000;0.000;2023-04-15T05:46:15;14.70;98.70
66710;DHT22;53624;0.000;0.000;2023-04-15T05:48:43;14.70;98.70
66710;DHT22;53624;0.000;0.000;2023-04-15T05:51:10;14.70;98.70
66710;DHT22;53624;0.000;0.000;2023-04-15T05:53:38;14.70;98.70
66710;DHT22;53624;0.000;0.000;2023-04-15T05:56:07;14.60;98.70
66710;DHT22;53624;0.000;0.000;2023-04-15T05:58:34;14.60;98.70
66710;DHT22;53624;0.000;0.000;2023-04-15T06:01:02;14.60;98.70
66710;DHT22;53624;0.000;0.000;2023-04-15T06:03:31;14.60;98.70
66710;DHT22;53624;0.000;0.000;2023-04-15T06:05:59;14.60;98.80
66710;DHT22;53624;0.000;0.000;2023-04-15T06:08:27;14.70;98.80
66710;DHT22;53624;0.000;0.000;2023-04-15T06:10:55;14.60;98.80
66710;DHT22;53624;0.000;0.000;2023-04-15T06:13:23;14.70;98.80
66710;DHT22;53624;0.000;0.000;2023-04-15T06:15:51;14.60;98.80
66710;DHT22;53624;0.000;0.000;2023-04-15T06:18:18;14.70;98.90
66710;DHT22;53624;0.000;0.000;2023-04-15T06:20:47;14.70;98.80
66710;DHT22;53624;0.000;0.000;2023-04-15T06:23:15;14.60;98.80
66710;DHT22;53624;0.000;0.000;2023-04-15T06:25:42;14.60;98.90
66710;DHT22;53624;0.000;0.000;2023-04-15T06:28:10;14.70;98.90
66710;DHT22;53624;0.000;0.000;2023-04-15T06:30:38;14.70;98.90
66710;DHT22;53624;0.000;0.000;2023-04-15T06:33:06;14.70;98.80
66710;DHT22;53624;0.000;0.000;2023-04-15T06:35:33;14.70;98.70
66710;DHT22;53624;0.000;0.000;2023-04-15T06:38:02;14.70;98.80
66710;DHT22;53624;0.000;0.000;2023-04-15T06:40:30;14.70;98.80
66710;DHT22;53624;0.000;0.000;2023-04-15T06:42:57;14.70;98.80
66710;DHT22;53624;0.000;0.000;2023-04-15T06:45:25;14.70;98.80
66710;DHT22;53624;0.000;0.000;2023-04-15T06:47:52;14.70;98.90
66710;DHT22;53624;0.000;0.000;2023-04-15T06:50:20;14.70;98.90
66710;DHT22;53624;0.000;0.000;2023-04-15T06:52:47;14.70;98.90
66710;DHT22;53624;0.000;0.000;2023-04-15T06:55:17;14.70;99.00
66710;DHT22;53624;0.000;0.000;2023-04-15T06:57:44;14.70;99.00
66710;DHT22;53624;0.000;0.000;2023-04-15T07:00:12;14.70;99.00
66710;DHT22;53624;0.000;0.000;2023-04-15T07:02:40;14.70;99.00
66710;DHT22;53624;0.000;0.000;2023-04-15T07:05:08;14.70;99.20
66710;DHT22;53624;0.000;0.000;2023-04-15T07:07:36;14.70;99.10
66710;DHT22;53624;0.000;0.000;2023-04-15T07:10:04;14.70;99.10
66710;DHT22;53624;0.000;0.000;2023-04-15T07:12:34;14.70;99.20
66710;DHT22;53624;0.000;0.000;2023-04-15T07:15:02;14.70;99.30
66710;DHT22;53624;0.000;0.000;2023-04-15T07:17:31;14.70;99.40
66710;DHT22;53624;0.000;0.000;2023-04-15T07:19:59;14.70;99.40
66710;DHT22;53624;0.000;0.000;2023-04-15T07:22:26;14.80;99.60
66710;DHT22;53624;0.000;0.000;2023-04-15T07:24:54;14.80;99.60
66710;DHT22;53624;0.000;0.000;2023-04-15T07:27:21;14.70;99.60
66710;DHT22;53624;0.000;0.000;2023-04-15T07:29:50;14.70;99.50
66710;DHT22;53624;0.000;0.000;2023-04-15T07:32:18;14.70;99.50
66710;DHT22;53624;0.000;0.000;2023-04-15T07:34:46;14.70;99.40
66710;DHT22;53624;0.000;0.000;2023-04-15T07:37:14;14.70;99.10
66710;DHT22;53624;0.000;0.000;2023-04-15T07:39:42;14.70;99.10
66710;DHT22;53624;0.000;0.000;2023-04-15T07:42:10;14.70;99.10
66710;DHT22;53624;0.000;0.000;2023-04-15T07:44:39;14.70;99.00
66710;DHT22;53624;0.000;0.000;2023-04-15T07:47:09;14.70;99.00
66710;DHT22;53624;0.000;0.000;2023-04-15T07:49:37;14.70;98.90
66710;DHT22;53624;0.000;0.000;2023-04-15T07:52:05;14.70;98.90
66710;DHT22;53624;0.000;0.000;2023-04-15T07:54:34;14.70;98.70
66710;DHT22;53624;0.000;0.000;2023-04-15T07:57:02;14.80;98.70
66710;DHT22;53624;0.000;0.000;2023-04-15T07:59:30;14.80;98.60
66710;DHT22;53624;0.000;0.000;2023-04-15T08:01:58;14.80;98.30
66710;DHT22;53624;0.000;0.000;2023-04-15T08:04:28;14.80;98.20
66710;DHT22;53624;0.000;0.000;2023-04-15T08:06:56;14.80;98.10
66710;DHT22;53624;0.000;0.000;2023-04-15T08:09:24;14.80;98.10
66710;DHT22;53624;0.000;0.000;2023-04-15T08:11:52;14.80;98.20
66710;DHT22;53624;0.000;0.000;2023-04-15T08:14:20;14.70;97.90
66710;DHT22;53624;0.000;0.000;2023-04-15T08:16:48;14.70;97.90
66710;DHT22;53624;0.000;0.000;2023-04-15T08:19:16;14.80;97.90
66710;DHT22;53624;0.000;0.000;2023-04-15T08:21:46;14.70;98.00
66710;DHT22;53624;0.000;0.000;2023-04-15T08:24:14;14.80;98.00
66710;DHT22;53624;0.000;0.000;2023-04-15T08:26:42;14.80;98.00
66710;DHT22;53624;0.000;0.000;2023-04-15T08:29:09;14.80;98.00
66710;DHT22;53624;0.000;0.000;2023-04-15T08:31:37;14.80;98.00
66710;DHT22;53624;0.000;0.000;2023-04-15T08:34:04;14.80;98.00
66710;DHT22;53624;0.000;0.000;2023-04-15T08:36:32;14.80;98.10
66710;DHT22;53624;0.000;0.000;2023-04-15T08:39:01;14.80;98.10
66710;DHT22;53624;0.000;0.000;2023-04-15T08:41:31;14.90;98.10
66710;DHT22;53624;0.000;0.000;2023-04-15T08:44:02;14.90;98.10
66710;DHT22;53624;0.000;0.000;2023-04-15T08:46:30;14.90;97.80
66710;DHT22;53624;0.000;0.000;2023-04-15T08:48:59;14.90;97.80
66710;DHT22;53624;0.000;0.000;2023-04-15T08:51:30;14.90;97.90
66710;DHT22;53624;0.000;0.000;2023-04-15T08:53:58;14.90;97.90
66710;DHT22;53624;0.000;0.000;2023-04-15T08:56:27;14.90;98.00
66710;DHT22;53624;0.000;0.000;2023-04-15T08:58:57;14.90;98.00
66710;DHT22;53624;0.000;0.000;2023-04-15T09:01:25;14.90;98.00
66710;DHT22;53624;0.000;0.000;2023-04-15T09:03:53;14.90;97.90
66710;DHT22;53624;0.000;0.000;2023-04-15T09:06:21;14.90;98.00
66710;DHT22;53624;0.000;0.000;2023-04-15T09:08:50;15.00;98.10
66710;DHT22;53624;0.000;0.000;2023-04-15T09:11:18;15.00;98.10
66710;DHT22;53624;0.000;0.000;2023-04-15T09:13:47;15.00;98.00
66710;DHT22;53624;0.000;0.000;2023-04-15T09:16:15;15.00;98.00
66710;DHT22;53624;0.000;0.000;2023-04-15T09:18:42;15.10;97.90
66710;DHT22;53624;0.000;0.000;2023-04-15T09:21:11;15.20;97.60
66710;DHT22;53624;0.000;0.000;2023-04-15T09:23:40;15.20;97.50
66710;DHT22;53624;0.000;0.000;2023-04-15T09:26:08;15.30;97.70
66710;DHT22;53624;0.000;0.000;2023-04-15T09:28:40;15.40;97.20
66710;DHT22;53624;0.000;0.000;2023-04-15T09:31:09;15.50;97.10
66710;DHT22;53624;0.000;0.000;2023-04-15T09:33:53;15.60;96.80
66710;DHT22;53624;0.000;0.000;2023-04-15T09:36:21;15.80;96.60
66710;DHT22;53624;0.000;0.000;2023-04-15T09:38:53;15.90;96.30
66710;DHT22;53624;0.000;0.000;2023-04-15T09:41:21;15.80;96.40
66710;DHT22;53624;0.000;0.000;2023-04-15T09:43:49;15.80;96.50
66710;DHT22;53624;0.000;0.000;2023-04-15T09:46:18;15.70;96.60
66710;DHT22;53624;0.000;0.000;2023-04-15T09:48:46;15.60;96.70
66710;DHT22;53624;0.000;0.000;2023-04-15T09:51:33;15.60;96.70
66710;DHT22;53624;0.000;0.000;2023-04-15T09:54:01;15.50;96.70
66710;DHT22;53624;0.000;0.000;2023-04-15T09:56:31;15.50;96.70
66710;DHT22;53624;0.000;0.000;2023-04-15T09:58:58;15.60;96.70
66710;DHT22;53624;0.000;0.000;2023-04-15T10:01:27;15.60;96.70
66710;DHT22;53624;0.000;0.000;2023-04-15T10:03:55;15.70;96.60
66710;DHT22;53624;0.000;0.000;2023-04-15T10:06:23;15.80;96.20
66710;DHT22;53624;0.000;0.000;2023-04-15T10:08:52;15.90;96.20
66710;DHT22;53624;0.000;0.000;2023-04-15T10:11:20;15.90;96.20
66710;DHT22;53624;0.000;0.000;2023-04-15T10:13:49;16.00;96.40
66710;DHT22;53624;0.000;0.000;2023-04-15T10:16:18;16.00;96.20
66710;DHT22;53624;0.000;0.000;2023-04-15T10:18:49;16.00;96.20
66710;DHT22;53624;0.000;0.000;2023-04-15T10:21:18;16.10;96.00
66710;DHT22;53624;0.000;0.000;2023-04-15T10:23:47;16.10;95.90
66710;DHT22;53624;0.000;0.000;2023-04-15T10:26:15;16.20;95.70
66710;DHT22;53624;0.000;0.000;2023-04-15T10:28:43;16.20;95.80
66710;DHT22;53624;0.000;0.000;2023-04-15T10:31:12;16.10;95.60
66710;DHT22;53624;0.000;0.000;2023-04-15T10:33:40;16.10;95.20
66710;DHT22;53624;0.000;0.000;2023-04-15T10:36:09;16.10;95.30
66710;DHT22;53624;0.000;0.000;2023-04-15T10:38:39;16.00;95.60
66710;DHT22;53624;0.000;0.000;2023-04-15T10:41:14;16.00;95.60
66710;DHT22;53624;0.000;0.000;2023-04-15T10:43:46;16.00;95.70
66710;DHT22;53624;0.000;0.000;2023-04-15T10:46:15;16.10;95.60
66710;DHT22;53624;0.000;0.000;2023-04-15T10:48:46;16.10;95.50
66710;DHT22;53624;0.000;0.000;2023-04-15T10:51:15;16.20;95.40
66710;DHT22;53624;0.000;0.000;2023-04-15T10:53:42;16.20;95.20
66710;DHT22;53624;0.000;0.000;2023-04-15T10:56:10;16.30;95.00
66710;DHT22;53624;0.000;0.000;2023-04-15T10:58:40;16.40;94.80
66710;DHT22;53624;0.000;0.000;2023-04-15T11:01:08;16.40;94.80
66710;DHT22;53624;0.000;0.000;2023-04-15T11:03:37;16.40;94.80
66710;DHT22;53624;0.000;0.000;2023-04-15T11:06:05;16.40;94.70
66710;DHT22;53624;0.000;0.000;2023-04-15T11:11:20;16.30;95.00
66710;DHT22;53624;0.000;0.000;2023-04-15T11:13:48;16.20;95.20
66710;DHT22;53624;0.000;0.000;2023-04-15T11:16:15;16.10;95.40
66710;DHT22;53624;0.000;0.000;2023-04-15T11:18:52;16.10;95.70
66710;DHT22;53624;0.000;0.000;2023-04-15T11:21:19;16.00;95.90
66710;DHT22;53624;0.000;0.000;2023-04-15T11:23:50;15.90;95.70
66710;DHT22;53624;0.000;0.000;2023-04-15T11:26:18;15.80;95.30
66710;DHT22;53624;0.000;0.000;2023-04-15T11:28:47;15.80;95.40
66710;DHT22;53624;0.000;0.000;2023-04-15T11:31:15;15.70;95.30
66710;DHT22;53624;0.000;0.000;2023-04-15T11:33:46;15.70;95.10
66710;DHT22;53624;0.000;0.000;2023-04-15T11:36:19;15.60;94.90
66710;DHT22;53624;0.000;0.000;2023-04-15T11:38:48;15.50;94.80
66710;DHT22;53624;0.000;0.000;2023-04-15T11:41:19;15.50;94.80
66710;DHT22;53624;0.000;0.000;2023-04-15T11:43:48;15.50;95.00
66710;DHT22;53624;0.000;0.000;2023-04-15T11:46:16;15.40;95.00
66710;DHT22;53624;0.000;0.000;2023-04-15T11:48:44;15.40;95.10
66710;DHT22;53624;0.000;0.000;2023-04-15T11:51:12;15.40;95.10
66710;DHT22;53624;0.000;0.000;2023-04-15T11:53:41;15.40;95.10
66710;DHT22;53624;0.000;0.000;2023-04-15T11:56:09;15.40;94.90
66710;DHT22;53624;0.000;0.000;2023-04-15T11:58:38;15.30;94.90
66710;DHT22;53624;0.000;0.000;2023-04-15T12:01:09;15.30;95.00
66710;DHT22;53624;0.000;0.000;2023-04-15T12:03:37;15.30;95.00
66710;DHT22;53624;0.000;0.000;2023-04-15T12:06:05;15.20;95.00
66710;DHT22;53624;0.000;0.000;2023-04-15T12:08:49;15.30;94.90
66710;DHT22;53624;0.000;0.000;2023-04-15T12:11:17;15.30;94.80
66710;DHT22;53624;0.000;0.000;2023-04-15T12:13:46;15.30;94.70
66710;DHT22;53624;0.000;0.000;2023-04-15T12:16:17;15.30;94.60
66710;DHT22;53624;0.000;0.000;2023-04-15T12:18:45;15.30;94.70
66710;DHT22;53624;0.000;0.000;2023-04-15T12:21:13;15.30;94.80
66710;DHT22;53624;0.000;0.000;2023-04-15T12:23:46;15.40;94.90
66710;DHT22;53624;0.000;0.000;2023-04-15T12:26:15;15.40;94.90
66710;DHT22;53624;0.000;0.000;2023-04-15T12:28:45;15.30;94.90
66710;DHT22;53624;0.000;0.000;2023-04-15T12:31:13;15.30;95.00
66710;DHT22;53624;0.000;0.000;2023-04-15T12:33:42;15.30;95.10
66710;DHT22;53624;0.000;0.000;2023-04-15T12:36:10;15.30;95.20
66710;DHT22;53624;0.000;0.000;2023-04-15T12:38:39;15.20;95.30
66710;DHT22;53624;0.000;0.000;2023-04-15T12:41:07;15.20;95.30
66710;DHT22;53624;0.000;0.000;2023-04-15T12:43:34;15.20;95.40
66710;DHT22;53624;0.000;0.000;2023-04-15T12:46:02;15.20;95.40
66710;DHT22;53624;0.000;0.000;2023-04-15T12:48:29;15.20;95.50
66710;DHT22;53624;0.000;0.000;2023-04-15T12:50:59;15.20;95.70
66710;DHT22;53624;0.000;0.000;2023-04-15T12:53:27;15.20;95.70
66710;DHT22;53624;0.000;0.000;2023-04-15T12:55:54;15.10;95.80
66710;DHT22;53624;0.000;0.000;2023-04-15T12:58:22;15.10;95.80
66710;DHT22;53624;0.000;0.000;2023-04-15T13:00:50;15.20;95.80
66710;DHT22;53624;0.000;0.000;2023-04-15T13:03:17;15.20;95.80
66710;DHT22;53624;0.000;0.000;2023-04-15T13:05:45;15.20;95.80
66710;DHT22;53624;0.000;0.000;2023-04-15T13:08:14;15.10;95.70
66710;DHT22;53624;0.000;0.000;2023-04-15T13:10:41;15.10;95.90
66710;DHT22;53624;0.000;0.000;2023-04-15T13:13:09;15.20;96.00
66710;DHT22;53624;0.000;0.000;2023-04-15T13:15:37;15.20;95.90
66710;DHT22;53624;0.000;0.000;2023-04-15T13:18:05;15.30;95.80
66710;DHT22;53624;0.000;0.000;2023-04-15T13:20:33;15.40;95.70
66710;DHT22;53624;0.000;0.000;2023-04-15T13:23:01;15.50;95.80
66710;DHT22;53624;0.000;0.000;2023-04-15T13:25:31;15.70;96.30
66710;DHT22;53624;0.000;0.000;2023-04-15T13:27:58;15.90;96.00
66710;DHT22;53624;0.000;0.000;2023-04-15T13:30:27;16.00;96.60
66710;DHT22;53624;0.000;0.000;2023-04-15T13:32:56;16.10;96.90
66710;DHT22;53624;0.000;0.000;2023-04-15T13:35:23;16.00;96.70
66710;DHT22;53624;0.000;0.000;2023-04-15T13:37:52;15.90;96.70
66710;DHT22;53624;0.000;0.000;2023-04-15T13:40:20;15.90;96.60
66710;DHT22;53624;0.000;0.000;2023-04-15T13:42:49;15.90;96.60
66710;DHT22;53624;0.000;0.000;2023-04-15T13:45:18;15.90;96.70
66710;DHT22;53624;0.000;0.000;2023-04-15T13:47:45;15.90;96.70
66710;DHT22;53624;0.000;0.000;2023-04-15T13:50:13;15.90;96.70
66710;DHT22;53624;0.000;0.000;2023-04-15T13:52:41;15.90;96.70
66710;DHT22;53624;0.000;0.000;2023-04-15T13:55:09;15.90;96.70
66710;DHT22;53624;0.000;0.000;2023-04-15T13:57:38;16.00;96.70
66710;DHT22;53624;0.000;0.000;2023-04-15T14:00:10;16.00;96.80
66710;DHT22;53624;0.000;0.000;2023-04-15T14:02:38;16.00;96.90
66710;DHT22;53624;0.000;0.000;2023-04-15T14:05:06;15.90;97.00
66710;DHT22;53624;0.000;0.000;2023-04-15T14:07:33;15.90;97.00
66710;DHT22;53624;0.000;0.000;2023-04-15T14:10:01;15.90;97.00
66710;DHT22;53624;0.000;0.000;2023-04-15T14:12:29;15.90;97.10
66710;DHT22;53624;0.000;0.000;2023-04-15T14:14:56;15.90;97.00
66710;DHT22;53624;0.000;0.000;2023-04-15T14:17:25;16.10;96.80
66710;DHT22;53624;0.000;0.000;2023-04-15T14:19:53;16.30;96.60
66710;DHT22;53624;0.000;0.000;2023-04-15T14:22:21;16.40;96.50
66710;DHT22;53624;0.000;0.000;2023-04-15T14:24:49;16.50;96.40
66710;DHT22;53624;0.000;0.000;2023-04-15T14:27:18;16.50;96.50
66710;DHT22;53624;0.000;0.000;2023-04-15T14:29:46;16.40;96.50
66710;DHT22;53624;0.000;0.000;2023-04-15T14:32:13;16.40;96.50
66710;DHT22;53624;0.000;0.000;2023-04-15T14:34:42;16.50;96.70
66710;DHT22;53624;0.000;0.000;2023-04-15T14:37:10;16.50;96.50
66710;DHT22;53624;0.000;0.000;2023-04-15T14:39:38;16.50;96.60
66710;DHT22;53624;0.000;0.000;2023-04-15T14:42:05;16.40;96.60
66710;DHT22;53624;0.000;0.000;2023-04-15T14:44:33;16.40;96.60
66710;DHT22;53624;0.000;0.000;2023-04-15T14:47:01;16.40;96.60
66710;DHT22;53624;0.000;0.000;2023-04-15T14:49:28;16.40;96.60
66710;DHT22;53624;0.000;0.000;2023-04-15T14:51:58;16.40;96.70
66710;DHT22;53624;0.000;0.000;2023-04-15T14:54:25;16.40;96.70
66710;DHT22;53624;0.000;0.000;2023-04-15T14:56:53;16.30;96.60
66710;DHT22;53624;0.000;0.000;2023-04-15T14:59:20;16.30;96.50
66710;DHT22;53624;0.000;0.000;2023-04-15T15:01:48;16.30;96.70
66710;DHT22;53624;0.000;0.000;2023-04-15T15:04:16;16.20;96.70
66710;DHT22;53624;0.000;0.000;2023-04-15T15:06:43;16.20;96.70
66710;DHT22;53624;0.000;0.000;2023-04-15T15:09:12;16.20;96.70
66710;DHT22;53624;0.000;0.000;2023-04-15T15:11:40;16.10;96.70
66710;DHT22;53624;0.000;0.000;2023-04-15T15:14:08;16.10;96.70
66710;DHT22;53624;0.000;0.000;2023-04-15T15:16:36;16.10;96.90
66710;DHT22;53624;0.000;0.000;2023-04-15T15:19:03;16.10;96.70
66710;DHT22;53624;0.000;0.000;2023-04-15T15:21:31;16.10;96.80
66710;DHT22;53624;0.000;0.000;2023-04-15T15:23:58;16.10;96.80
66710;DHT22;53624;0.000;0.000;2023-04-15T15:26:28;16.10;96.90
66710;DHT22;53624;0.000;0.000;2023-04-15T15:28:55;16.10;96.90
66710;DHT22;53624;0.000;0.000;2023-04-15T15:31:23;16.00;96.90
66710;DHT22;53624;0.000;0.000;2023-04-15T15:33:51;16.10;96.80
66710;DHT22;53624;0.000;0.000;2023-04-15T15:36:19;16.00;96.90
66710;DHT22;53624;0.000;0.000;2023-04-15T15:38:46;16.00;96.90
66710;DHT22;53624;0.000;0.000;2023-04-15T15:41:14;16.00;97.00
66710;DHT22;53624;0.000;0.000;2023-04-15T15:43:43;15.90;97.10
66710;DHT22;53624;0.000;0.000;2023-04-15T15:46:10;15.90;97.10
66710;DHT22;53624;0.000;0.000;2023-04-15T15:48:38;16.00;97.10
66710;DHT22;53624;0.000;0.000;2023-04-15T15:51:06;16.00;97.10
66710;DHT22;53624;0.000;0.000;2023-04-15T15:53:34;16.00;97.10